Port Mouton, Canada
Current Conditions -  °F | °C
As of 11:00 AM on Thursday 23 Oct 2014 (Local Time) from CYQI Reporting Station
Overcast Overcast  
Wind Chill: 55°   Ceiling: 700
Heat Index: 55°   Visibility: 7mi
Dew Point: 55°   Wind: 22mph
Humidity: 100%   Direction: 90°E
Pressure: 29.82"   Gusts: 38mph
Location:  43.93°N, 64.85°W
Report Text: CYQI 231400Z 09019G33KT 7SM OVC007 13/13 A2982 RMK SF8 SLP099
Loading
Personal Weather Stations






























Interactive Weather Map
Tropical Storm Tracking
New forecast layout! Learn more

10-Day Weather Forecast

Advertisements
Track Severe Weather on mobile